Time,TemperatureF,DewpointF,PressureIn,WindDirection,WindDirectionDegrees,WindSpeedMPH,WindSpeedGustMPH,Humidity,HourlyPrecipIn,Conditions,Clouds,dailyrainin,SolarRadiationWatts/m^2,SoftwareType,DateUTC
2013-05-22 00:00:00,73.9,69.4,29.85,WSW,257,1.0,1.0,86,0.00,,,0.00,0,Wunderground v.1.15,2013-05-22 04:00:00,
2013-05-22 00:05:00,73.8,69.3,29.85,WSW,246,1.0,1.0,86,0.00,,,0.00,0,Wunderground v.1.15,2013-05-22 04:05:00,
2013-05-22 00:15:00,73.7,69.2,29.86,WSW,251,1.0,1.0,86,0.00,,,0.00,0,Wunderground v.1.15,2013-05-22 04:15:00,
2013-05-22 00:20:00,73.6,69.2,29.86,WSW,251,0.0,0.0,86,0.00,,,0.00,0,Wunderground v.1.15,2013-05-22 04:20:00,
2013-05-22 00:30:00,73.4,69.3,29.86,WNW,290,1.0,2.0,87,0.00,,,0.00,0,Wunderground v.1.15,2013-05-22 04:30:00,
2013-05-22 00:35:00,73.4,69.3,29.85,SW,222,1.0,2.0,87,0.00,,,0.00,0,Wunderground v.1.15,2013-05-22 04:35:00,
2013-05-22 00:45:00,73.3,69.2,29.86,WSW,239,0.0,0.0,87,0.00,,,0.00,0,Wunderground v.1.15,2013-05-22 04:45:00,
2013-05-22 00:55:00,73.0,68.9,29.85,West,273,0.0,0.0,87,0.00,,,0.00,0,Wunderground v.1.15,2013-05-22 04:55:00,
2013-05-22 01:05:00,72.8,69.0,29.85,West,273,0.0,0.0,88,0.00,,,0.00,0,Wunderground v.1.15,2013-05-22 05:05:00,
2013-05-22 01:15:00,72.6,68.8,29.84,WSW,239,0.0,0.0,88,0.00,,,0.00,0,Wunderground v.1.15,2013-05-22 05:15:00,
2013-05-22 01:25:00,72.6,69.2,29.84,SW,218,1.0,1.0,89,0.00,,,0.00,0,Wunderground v.1.15,2013-05-22 05:25:00,
2013-05-22 01:35:00,72.6,69.2,29.83,SSW,202,0.0,1.0,89,0.00,,,0.00,0,Wunderground v.1.15,2013-05-22 05:35:00,
2013-05-22 01:45:00,72.7,69.3,29.83,WNW,287,1.0,1.0,89,0.00,,,0.00,0,Wunderground v.1.15,2013-05-22 05:45:00,
2013-05-22 01:55:00,72.7,68.9,29.83,West,281,0.0,1.0,88,0.00,,,0.00,0,Wunderground v.1.15,2013-05-22 05:55:00,
2013-05-22 02:05:00,72.5,68.7,29.83,WNW,285,0.0,0.0,88,0.00,,,0.00,0,Wunderground v.1.15,2013-05-22 06:05:00,
2013-05-22 02:10:00,72.3,68.9,29.83,WSW,239,0.0,0.0,89,0.00,,,0.00,0,Wunderground v.1.15,2013-05-22 06:10:00,
2013-05-22 02:20:00,72.2,68.8,29.84,NW,304,0.0,0.0,89,0.00,,,0.00,0,Wunderground v.1.15,2013-05-22 06:20:00,
2013-05-22 02:30:00,71.9,68.5,29.84,WNW,285,0.0,0.0,89,0.00,,,0.00,0,Wunderground v.1.15,2013-05-22 06:30:00,
2013-05-22 02:35:00,71.7,68.3,29.83,WNW,285,0.0,0.0,89,0.00,,,0.00,0,Wunderground v.1.15,2013-05-22 06:35:00,
2013-05-22 02:45:00,71.1,67.7,29.84,WNW,285,0.0,0.0,89,0.00,,,0.00,0,Wunderground v.1.15,2013-05-22 06:45:00,
2013-05-22 02:55:00,70.2,67.1,29.84,WNW,285,0.0,0.0,90,0.00,,,0.00,0,Wunderground v.1.15,2013-05-22 06:55:00,
2013-05-22 03:05:00,69.6,66.9,29.84,WNW,285,0.0,0.0,91,0.00,,,0.00,0,Wunderground v.1.15,2013-05-22 07:05:00,
2013-05-22 03:15:00,69.1,66.7,29.84,WNW,285,0.0,0.0,92,0.00,,,0.00,0,Wunderground v.1.15,2013-05-22 07:15:00,
2013-05-22 03:25:00,68.8,66.4,29.83,WNW,285,0.0,0.0,92,0.00,,,0.00,0,Wunderground v.1.15,2013-05-22 07:25:00,
2013-05-22 03:35:00,68.5,66.4,29.83,WNW,285,0.0,0.0,93,0.00,,,0.00,0,Wunderground v.1.15,2013-05-22 07:35:00,
2013-05-22 03:45:00,68.3,66.2,29.83,WNW,285,0.0,0.0,93,0.00,,,0.00,0,Wunderground v.1.15,2013-05-22 07:45:00,
2013-05-22 03:55:00,67.9,65.8,29.83,WNW,285,0.0,0.0,93,0.00,,,0.00,0,Wunderground v.1.15,2013-05-22 07:55:00,
2013-05-22 04:05:00,67.9,66.1,29.83,WNW,285,0.0,0.0,94,0.00,,,0.00,0,Wunderground v.1.15,2013-05-22 08:05:00,
2013-05-22 04:15:00,68.0,66.5,29.83,SW,216,0.0,0.0,95,0.00,,,0.00,0,Wunderground v.1.15,2013-05-22 08:15:00,
2013-05-22 04:25:00,68.3,66.8,29.82,South,184,0.0,0.0,95,0.00,,,0.00,0,Wunderground v.1.15,2013-05-22 08:25:00,
2013-05-22 05:37:00,65.9,64.4,29.84,NW,307,0.0,0.0,95,0.00,,,0.00,0,Wunderground v.1.15,2013-05-22 09:37:00,
2013-05-22 05:45:00,65.7,64.2,29.84,NW,307,0.0,0.0,95,0.00,,,0.00,0,Wunderground v.1.15,2013-05-22 09:45:00,
2013-05-22 05:55:00,65.3,63.8,29.85,NW,307,0.0,0.0,95,0.00,,,0.00,0,Wunderground v.1.15,2013-05-22 09:55:00,
2013-05-22 06:05:00,64.9,63.4,29.85,NW,307,0.0,0.0,95,0.00,,,0.00,9,Wunderground v.1.15,2013-05-22 10:05:00,
2013-05-22 06:15:00,65.4,64.2,29.85,NW,307,0.0,0.0,96,0.00,,,0.00,16,Wunderground v.1.15,2013-05-22 10:15:00,
2013-05-22 06:20:00,65.7,64.8,29.86,NW,307,0.0,0.0,97,0.00,,,0.00,19,Wunderground v.1.15,2013-05-22 10:20:00,
2013-05-22 06:30:00,65.9,64.7,29.86,NW,307,0.0,0.0,96,0.00,,,0.00,23,Wunderground v.1.15,2013-05-22 10:30:00,
2013-05-22 06:40:00,66.2,65.0,29.87,NW,307,0.0,0.0,96,0.00,,,0.00,46,Wunderground v.1.15,2013-05-22 10:40:00,
2013-05-22 06:50:00,66.8,65.9,29.87,NW,307,0.0,0.0,97,0.00,,,0.00,67,Wunderground v.1.15,2013-05-22 10:50:00,
2013-05-22 06:55:00,67.3,66.4,29.87,NW,307,0.0,0.0,97,0.00,,,0.00,81,Wunderground v.1.15,2013-05-22 10:55:00,
2013-05-22 07:05:00,67.7,66.8,29.87,NW,307,0.0,0.0,97,0.00,,,0.00,104,Wunderground v.1.15,2013-05-22 11:05:00,
2013-05-22 07:15:00,68.6,67.7,29.88,NW,307,0.0,0.0,97,0.00,,,0.00,128,Wunderground v.1.15,2013-05-22 11:15:00,
2013-05-22 07:20:00,68.9,68.0,29.88,NW,307,0.0,0.0,97,0.00,,,0.00,146,Wunderground v.1.15,2013-05-22 11:20:00,
2013-05-22 07:30:00,69.6,68.7,29.88,NW,307,0.0,0.0,97,0.00,,,0.00,185,Wunderground v.1.15,2013-05-22 11:30:00,
2013-05-22 07:40:00,70.5,69.3,29.89,NW,307,0.0,0.0,96,0.00,,,0.00,225,Wunderground v.1.15,2013-05-22 11:40:00,
2013-05-22 07:45:00,71.0,69.8,29.89,WNW,285,0.0,0.0,96,0.00,,,0.00,241,Wunderground v.1.15,2013-05-22 11:45:00,
2013-05-22 07:55:00,72.2,70.7,29.89,West,264,1.0,1.0,95,0.00,,,0.00,269,Wunderground v.1.15,2013-05-22 11:55:00,
2013-05-22 08:05:00,73.6,71.1,29.89,NW,322,1.0,2.0,92,0.00,,,0.00,246,Wunderground v.1.15,2013-05-22 12:05:00,
2013-05-22 08:10:00,74.1,71.0,29.89,SW,226,2.0,2.0,90,0.00,,,0.00,283,Wunderground v.1.15,2013-05-22 12:10:00,
2013-05-22 08:20:00,75.0,70.5,29.89,WSW,244,2.0,2.0,86,0.00,,,0.00,371,Wunderground v.1.15,2013-05-22 12:20:00,
2013-05-22 08:30:00,76.4,71.2,29.89,WSW,249,1.0,1.0,84,0.00,,,0.00,348,Wunderground v.1.15,2013-05-22 12:30:00,
2013-05-22 08:40:00,77.8,71.9,29.88,WSW,241,1.0,3.0,82,0.00,,,0.00,420,Wunderground v.1.15,2013-05-22 12:40:00,
2013-05-22 08:50:00,78.6,71.2,29.89,WNW,301,2.0,2.0,78,0.00,,,0.00,459,Wunderground v.1.15,2013-05-22 12:50:00,
2013-05-22 09:00:00,79.0,70.8,29.89,SSW,206,1.0,1.0,76,0.00,,,0.00,489,Wunderground v.1.15,2013-05-22 13:00:00,
2013-05-22 09:05:00,79.6,71.0,29.89,SE,139,1.0,1.0,75,0.00,,,0.00,468,Wunderground v.1.15,2013-05-22 13:05:00,
2013-05-22 09:15:00,79.5,70.5,29.89,WNW,301,2.0,2.0,74,0.00,,,0.00,526,Wunderground v.1.15,2013-05-22 13:15:00,
2013-05-22 09:25:00,79.7,69.0,29.89,WNW,285,2.0,2.0,70,0.00,,,0.00,564,Wunderground v.1.15,2013-05-22 13:25:00,
2013-05-22 09:35:00,80.8,69.7,29.89,WNW,285,2.0,2.0,69,0.00,,,0.00,520,Wunderground v.1.15,2013-05-22 13:35:00,
2013-05-22 09:45:00,81.8,69.8,29.89,NW,319,3.0,3.0,67,0.00,,,0.00,649,Wunderground v.1.15,2013-05-22 13:45:00,
2013-05-22 09:50:00,82.0,70.4,29.89,SW,233,2.0,3.0,68,0.00,,,0.00,631,Wunderground v.1.15,2013-05-22 13:50:00,
2013-05-22 10:00:00,82.5,69.1,29.89,West,271,3.0,3.0,64,0.00,,,0.00,668,Wunderground v.1.15,2013-05-22 14:00:00,
2013-05-22 10:10:00,83.0,65.2,29.89,NW,304,3.0,3.0,55,0.00,,,0.00,698,Wunderground v.1.15,2013-05-22 14:10:00,
2013-05-22 10:20:00,83.1,65.8,29.89,WNW,303,3.0,3.0,56,0.00,,,0.00,733,Wunderground v.1.15,2013-05-22 14:20:00,
2013-05-22 10:30:00,83.8,66.9,29.89,SSW,194,3.0,3.0,57,0.00,,,0.00,835,Wunderground v.1.15,2013-05-22 14:30:00,
2013-05-22 10:40:00,84.4,68.0,29.89,WSW,246,3.0,3.0,58,0.00,,,0.00,364,Wunderground v.1.15,2013-05-22 14:40:00,
2013-05-22 10:50:00,84.6,67.2,29.88,WSW,251,3.0,3.0,56,0.00,,,0.00,791,Wunderground v.1.15,2013-05-22 14:50:00,
2013-05-22 11:00:00,85.1,65.5,29.88,West,276,2.0,4.0,52,0.00,,,0.00,863,Wunderground v.1.15,2013-05-22 15:00:00,
2013-05-22 11:10:00,85.8,66.1,29.89,WNW,291,3.0,4.0,52,0.00,,,0.00,582,Wunderground v.1.15,2013-05-22 15:10:00,
2013-05-22 11:20:00,84.7,65.1,29.89,WSW,249,3.0,3.0,52,0.00,,,0.00,269,Wunderground v.1.15,2013-05-22 15:20:00,
2013-05-22 11:25:00,84.1,65.1,29.89,NW,316,2.0,3.0,53,0.00,,,0.00,220,Wunderground v.1.15,2013-05-22 15:25:00,
2013-05-22 11:35:00,83.2,64.8,29.89,West,268,2.0,3.0,54,0.00,,,0.00,178,Wunderground v.1.15,2013-05-22 15:35:00,
2013-05-22 11:45:00,83.2,64.3,29.89,West,278,2.0,2.0,53,0.00,,,0.00,404,Wunderground v.1.15,2013-05-22 15:45:00,
2013-05-22 11:50:00,84.1,65.7,29.88,SSW,202,2.0,2.0,54,0.00,,,0.00,858,Wunderground v.1.15,2013-05-22 15:50:00,
2013-05-22 12:00:00,85.2,66.7,29.88,South,185,2.0,2.0,54,0.00,,,0.00,501,Wunderground v.1.15,2013-05-22 16:00:00,
2013-05-22 12:10:00,85.7,65.5,29.88,West,281,2.0,2.0,51,0.00,,,0.00,715,Wunderground v.1.15,2013-05-22 16:10:00,
2013-05-22 12:15:00,85.9,67.3,29.88,SW,236,3.0,4.0,54,0.00,,,0.00,378,Wunderground v.1.15,2013-05-22 16:15:00,
2013-05-22 12:25:00,86.2,67.1,29.87,SW,232,3.0,5.0,53,0.00,,,0.00,378,Wunderground v.1.15,2013-05-22 16:25:00,
2013-05-22 12:35:00,86.6,66.9,29.87,South,189,3.0,4.0,52,0.00,,,0.00,905,Wunderground v.1.15,2013-05-22 16:35:00,
2013-05-22 12:40:00,86.9,64.8,29.87,West,272,3.0,3.0,48,0.00,,,0.00,907,Wunderground v.1.15,2013-05-22 16:40:00,
2013-05-22 12:50:00,86.8,64.2,29.86,South,183,4.0,4.0,47,0.00,,,0.00,907,Wunderground v.1.15,2013-05-22 16:50:00,
2013-05-22 13:00:00,87.2,66.3,29.86,SW,233,2.0,2.0,50,0.00,,,0.00,912,Wunderground v.1.15,2013-05-22 17:00:00,
2013-05-22 13:10:00,87.9,65.8,29.86,SSW,210,2.0,2.0,48,0.00,,,0.00,911,Wunderground v.1.15,2013-05-22 17:10:00,
2013-05-22 13:20:00,88.4,67.4,29.85,West,270,3.0,3.0,50,0.00,,,0.00,904,Wunderground v.1.15,2013-05-22 17:20:00,
2013-05-22 13:25:00,88.8,66.0,29.85,West,259,3.0,5.0,47,0.00,,,0.00,898,Wunderground v.1.15,2013-05-22 17:25:00,
2013-05-22 13:30:00,89.1,66.9,29.85,SW,222,3.0,3.0,48,0.00,,,0.00,882,Wunderground v.1.15,2013-05-22 17:30:00,
2013-05-22 13:40:00,89.4,66.5,29.85,WNW,295,3.0,4.0,47,0.00,,,0.00,912,Wunderground v.1.15,2013-05-22 17:40:00,
2013-05-22 13:45:00,89.1,65.6,29.85,SW,232,3.0,9.0,46,0.00,,,0.00,886,Wunderground v.1.15,2013-05-22 17:45:00,
2013-05-22 13:55:00,88.8,66.0,29.84,West,268,3.0,5.0,47,0.00,,,0.00,860,Wunderground v.1.15,2013-05-22 17:55:00,
2013-05-22 14:05:00,89.1,65.6,29.84,SSW,210,3.0,4.0,46,0.00,,,0.00,853,Wunderground v.1.15,2013-05-22 18:05:00,
2013-05-22 14:10:00,89.3,65.2,29.84,WNW,286,3.0,3.0,45,0.00,,,0.00,891,Wunderground v.1.15,2013-05-22 18:10:00,
2013-05-22 14:20:00,90.2,66.6,29.83,West,266,2.0,2.0,46,0.00,,,0.00,874,Wunderground v.1.15,2013-05-22 18:20:00,
2013-05-22 14:30:00,90.2,68.5,29.83,West,260,2.0,2.0,49,0.00,,,0.00,861,Wunderground v.1.15,2013-05-22 18:30:00,
2013-05-22 14:40:00,90.2,66.6,29.83,SW,227,3.0,5.0,46,0.00,,,0.00,209,Wunderground v.1.15,2013-05-22 18:40:00,
2013-05-22 14:50:00,89.8,68.7,29.82,SSE,162,4.0,4.0,50,0.00,,,0.00,828,Wunderground v.1.15,2013-05-22 18:50:00,
2013-05-22 15:00:00,90.1,66.5,29.82,SSW,208,3.0,3.0,46,0.00,,,0.00,779,Wunderground v.1.15,2013-05-22 19:00:00,
2013-05-22 15:10:00,90.5,67.5,29.82,South,191,3.0,5.0,47,0.00,,,0.00,793,Wunderground v.1.15,2013-05-22 19:10:00,
2013-05-22 15:20:00,90.3,66.1,29.82,SSW,204,4.0,5.0,45,0.00,,,0.00,823,Wunderground v.1.15,2013-05-22 19:20:00,
2013-05-22 15:25:00,90.2,66.0,29.81,SSW,213,5.0,5.0,45,0.00,,,0.00,758,Wunderground v.1.15,2013-05-22 19:25:00,
2013-05-22 15:35:00,90.3,66.1,29.81,SSW,200,4.0,5.0,45,0.00,,,0.00,779,Wunderground v.1.15,2013-05-22 19:35:00,
2013-05-22 15:45:00,90.4,67.4,29.80,SW,235,4.0,4.0,47,0.00,,,0.00,719,Wunderground v.1.15,2013-05-22 19:45:00,
2013-05-22 15:50:00,90.5,66.3,29.80,SW,218,3.0,6.0,45,0.00,,,0.00,717,Wunderground v.1.15,2013-05-22 19:50:00,
2013-05-22 16:00:00,90.7,67.1,29.80,South,175,4.0,6.0,46,0.00,,,0.00,703,Wunderground v.1.15,2013-05-22 20:00:00,
2013-05-22 16:10:00,90.4,68.0,29.79,South,172,4.0,4.0,48,0.00,,,0.00,671,Wunderground v.1.15,2013-05-22 20:10:00,
2013-05-22 16:15:00,90.6,68.2,29.79,SW,226,4.0,5.0,48,0.00,,,0.00,647,Wunderground v.1.15,2013-05-22 20:15:00,
2013-05-22 16:25:00,90.4,68.6,29.79,WSW,241,5.0,5.0,49,0.00,,,0.00,659,Wunderground v.1.15,2013-05-22 20:25:00,
2013-05-22 16:35:00,88.8,68.9,29.79,South,175,4.0,6.0,52,0.00,,,0.00,174,Wunderground v.1.15,2013-05-22 20:35:00,
2013-05-22 16:40:00,87.9,68.6,29.79,SW,231,4.0,4.0,53,0.00,,,0.00,190,Wunderground v.1.15,2013-05-22 20:40:00,
2013-05-22 16:50:00,87.3,69.2,29.78,South,190,4.0,4.0,55,0.00,,,0.00,330,Wunderground v.1.15,2013-05-22 20:50:00,
2013-05-22 17:00:00,88.3,67.9,29.78,WSW,254,3.0,3.0,51,0.00,,,0.00,568,Wunderground v.1.15,2013-05-22 21:00:00,
2013-05-22 17:10:00,89.3,67.6,29.78,North,353,3.0,3.0,49,0.00,,,0.00,90,Wunderground v.1.15,2013-05-22 21:10:00,
2013-05-22 17:20:00,87.6,66.7,29.79,West,270,3.0,4.0,50,0.00,,,0.00,84,Wunderground v.1.15,2013-05-22 21:20:00,
2013-05-22 17:30:00,86.4,66.7,29.78,SW,220,3.0,3.0,52,0.00,,,0.00,79,Wunderground v.1.15,2013-05-22 21:30:00,
2013-05-22 17:40:00,85.7,66.6,29.78,SSW,200,3.0,3.0,53,0.00,,,0.00,70,Wunderground v.1.15,2013-05-22 21:40:00,
2013-05-22 17:50:00,85.2,67.2,29.79,NNW,336,2.0,3.0,55,0.00,,,0.00,70,Wunderground v.1.15,2013-05-22 21:50:00,
2013-05-22 17:55:00,85.0,67.0,29.79,WSW,243,2.0,3.0,55,0.00,,,0.00,69,Wunderground v.1.15,2013-05-22 21:55:00,
2013-05-22 18:05:00,84.6,67.2,29.80,NNW,328,3.0,5.0,56,0.00,,,0.00,58,Wunderground v.1.15,2013-05-22 22:05:00,
2013-05-22 18:15:00,84.1,67.7,29.81,NW,322,3.0,3.0,58,0.00,,,0.00,21,Wunderground v.1.15,2013-05-22 22:15:00,
2013-05-22 18:25:00,81.3,63.6,29.81,WNW,295,3.0,5.0,55,0.00,,,0.00,12,Wunderground v.1.15,2013-05-22 22:25:00,
2013-05-22 18:35:00,79.4,63.3,29.83,WNW,302,4.0,6.0,58,0.00,,,0.00,16,Wunderground v.1.15,2013-05-22 22:35:00,
2013-05-22 18:45:00,76.6,63.5,29.84,WNW,289,7.0,8.0,64,0.00,,,0.00,11,Wunderground v.1.15,2013-05-22 22:45:00,
2013-05-22 18:55:00,73.3,64.9,29.84,NW,308,5.0,7.0,75,0.00,,,0.01,0,Wunderground v.1.15,2013-05-22 22:55:00,
2013-05-22 19:05:00,71.2,64.4,29.86,SSW,206,4.0,5.0,79,0.10,,,0.04,0,Wunderground v.1.15,2013-05-22 23:05:00,
2013-05-22 19:10:00,70.5,64.4,29.85,SSE,162,2.0,2.0,81,0.05,,,0.04,5,Wunderground v.1.15,2013-05-22 23:10:00,
2013-05-22 19:20:00,69.8,64.7,29.85,NE,44,1.0,1.0,84,0.00,,,0.04,14,Wunderground v.1.15,2013-05-22 23:20:00,
2013-05-22 19:30:00,69.0,65.0,29.85,NE,44,0.0,0.0,87,0.00,,,0.05,37,Wunderground v.1.15,2013-05-22 23:30:00,
2013-05-22 19:35:00,68.6,65.2,29.85,SE,145,0.0,1.0,89,0.00,,,0.05,42,Wunderground v.1.15,2013-05-22 23:35:00,
2013-05-22 19:45:00,68.5,65.4,29.85,SE,141,2.0,4.0,90,0.00,,,0.05,32,Wunderground v.1.15,2013-05-22 23:45:00,
2013-05-22 19:55:00,68.6,65.5,29.86,SE,139,1.0,2.0,90,0.00,,,0.05,21,Wunderground v.1.15,2013-05-22 23:55:00,
2013-05-22 20:05:00,68.7,65.6,29.88,SW,222,1.0,5.0,90,0.00,,,0.05,0,Wunderground v.1.15,2013-05-23 00:05:00,
2013-05-22 20:15:00,68.7,65.6,29.86,ESE,113,3.0,3.0,90,0.21,,,0.07,0,Wunderground v.1.15,2013-05-23 00:15:00,
2013-05-22 20:25:00,68.0,65.0,29.85,SE,137,2.0,2.0,90,0.18,,,0.09,0,Wunderground v.1.15,2013-05-23 00:25:00,
2013-05-22 20:30:00,67.8,65.1,29.85,SE,136,2.0,2.0,91,0.18,,,0.11,0,Wunderground v.1.15,2013-05-23 00:30:00,
2013-05-22 20:40:00,67.3,64.6,29.84,SE,125,1.0,1.0,91,0.06,,,0.11,0,Wunderground v.1.15,2013-05-23 00:40:00,
2013-05-22 20:50:00,67.1,64.7,29.85,SSE,149,1.0,1.0,92,0.00,,,0.11,0,Wunderground v.1.15,2013-05-23 00:50:00,
2013-05-22 20:55:00,67.0,64.6,29.85,SE,128,0.0,1.0,92,0.00,,,0.11,0,Wunderground v.1.15,2013-05-23 00:55:00,
2013-05-22 21:05:00,67.0,64.9,29.85,ESE,120,0.0,1.0,93,0.00,,,0.11,0,Wunderground v.1.15,2013-05-23 01:05:00,
2013-05-22 21:15:00,66.8,64.7,29.86,North,353,0.0,1.0,93,0.00,,,0.11,0,Wunderground v.1.15,2013-05-23 01:15:00,
2013-05-22 21:25:00,67.2,65.4,29.89,NW,323,2.0,4.0,94,0.00,,,0.11,0,Wunderground v.1.15,2013-05-23 01:25:00,
2013-05-22 21:35:00,67.5,65.7,29.90,WSW,251,2.0,3.0,94,0.00,,,0.11,0,Wunderground v.1.15,2013-05-23 01:35:00,
2013-05-22 21:45:00,67.7,65.9,29.90,SW,235,0.0,1.0,94,0.00,,,0.11,0,Wunderground v.1.15,2013-05-23 01:45:00,
2013-05-22 21:55:00,67.7,65.9,29.91,WNW,293,2.0,3.0,94,0.00,,,0.11,0,Wunderground v.1.15,2013-05-23 01:55:00,
2013-05-22 22:05:00,67.5,65.4,29.92,NW,321,4.0,4.0,93,0.00,,,0.11,0,Wunderground v.1.15,2013-05-23 02:05:00,
2013-05-22 22:15:00,67.7,65.3,29.92,NW,325,4.0,5.0,92,0.00,,,0.12,0,Wunderground v.1.15,2013-05-23 02:15:00,
2013-05-22 22:20:00,67.7,65.3,29.92,WSW,239,3.0,3.0,92,0.00,,,0.12,0,Wunderground v.1.15,2013-05-23 02:20:00,
2013-05-22 22:30:00,67.6,65.2,29.92,WNW,293,2.0,3.0,92,0.00,,,0.12,0,Wunderground v.1.15,2013-05-23 02:30:00,
2013-05-22 22:40:00,67.5,65.1,29.91,WSW,239,1.0,1.0,92,0.23,,,0.15,0,Wunderground v.1.15,2013-05-23 02:40:00,
2013-05-22 22:45:00,67.4,65.0,29.91,SSW,206,0.0,1.0,92,0.28,,,0.17,0,Wunderground v.1.15,2013-05-23 02:45:00,
2013-05-22 22:55:00,67.2,65.1,29.89,SE,129,1.0,2.0,93,0.14,,,0.20,0,Wunderground v.1.15,2013-05-23 02:55:00,
2013-05-22 23:05:00,66.9,65.1,29.89,South,172,1.0,1.0,94,0.09,,,0.21,0,Wunderground v.1.15,2013-05-23 03:05:00,
2013-05-22 23:10:00,66.8,65.0,29.88,SSE,162,1.0,1.0,94,0.06,,,0.21,0,Wunderground v.1.15,2013-05-23 03:10:00,
2013-05-22 23:20:00,66.7,64.9,29.87,SSE,162,0.0,0.0,94,0.00,,,0.21,0,Wunderground v.1.15,2013-05-23 03:20:00,
2013-05-22 23:30:00,66.5,64.7,29.86,SSE,162,0.0,0.0,94,0.00,,,0.22,0,Wunderground v.1.15,2013-05-23 03:30:00,
2013-05-22 23:35:00,66.4,64.6,29.86,SSE,162,0.0,0.0,94,0.00,,,0.22,0,Wunderground v.1.15,2013-05-23 03:35:00,
2013-05-22 23:45:00,66.2,64.7,29.85,SSE,162,0.0,0.0,95,0.00,,,0.22,0,Wunderground v.1.15,2013-05-23 03:45:00,
2013-05-22 23:55:00,66.2,64.7,29.86,SSE,156,1.0,2.0,95,0.00,,,0.22,0,Wunderground v.1.15,2013-05-23 03:55:00,